createdAt,value
2019-02-05T00:00:59.341Z,9.45
2019-02-05T00:03:28.267Z,10.65
2019-02-05T00:05:57.496Z,9.48
2019-02-05T00:08:26.659Z,14.13
2019-02-05T00:10:56.240Z,8.20
2019-02-05T00:13:25.152Z,10.58
2019-02-05T00:15:54.311Z,8.05
2019-02-05T00:18:23.387Z,12.45
2019-02-05T00:20:52.351Z,6.92
2019-02-05T00:23:21.121Z,8.93
2019-02-05T00:25:50.240Z,12.88
2019-02-05T00:28:19.367Z,8.70
2019-02-05T00:30:48.148Z,12.98
2019-02-05T00:33:17.344Z,10.53
2019-02-05T00:35:46.597Z,9.90
2019-02-05T00:38:15.866Z,10.82
2019-02-05T00:40:45.059Z,9.43
2019-02-05T00:43:13.971Z,17.00
2019-02-05T00:45:42.820Z,15.45
2019-02-05T00:48:11.746Z,14.35
2019-02-05T00:50:40.767Z,13.53
2019-02-05T00:53:09.859Z,9.48
2019-02-05T00:55:38.681Z,11.50
2019-02-05T00:58:07.643Z,12.37
2019-02-05T01:00:36.818Z,12.45
2019-02-05T01:03:06.548Z,9.58
2019-02-05T01:05:35.395Z,11.95
2019-02-05T01:08:05.168Z,12.07
2019-02-05T01:10:34.368Z,12.10
2019-02-05T01:13:03.312Z,12.07
2019-02-05T01:15:32.283Z,8.23
2019-02-05T01:18:01.900Z,11.48
2019-02-05T01:20:30.777Z,12.95
2019-02-05T01:22:59.652Z,14.38
2019-02-05T01:25:28.654Z,12.10
2019-02-05T01:27:57.563Z,14.78
2019-02-05T01:30:27.315Z,9.58
2019-02-05T01:32:56.345Z,13.75
2019-02-05T01:35:25.253Z,14.90
2019-02-05T01:37:54.219Z,15.78
2019-02-05T01:40:24.575Z,9.93
2019-02-05T01:42:53.834Z,17.37
2019-02-05T01:45:23.190Z,13.78
2019-02-05T01:47:52.726Z,13.35
2019-02-05T01:50:23.785Z,14.15
2019-02-05T01:52:52.729Z,10.30
2019-02-05T01:55:22.206Z,12.75
2019-02-05T01:57:51.170Z,18.35
2019-02-05T02:00:22.289Z,11.43
2019-02-05T02:02:51.557Z,12.65
2019-02-05T02:05:20.705Z,14.28
2019-02-05T02:07:49.866Z,12.82
2019-02-05T02:10:21.398Z,12.03
2019-02-05T02:12:50.366Z,13.55
2019-02-05T02:15:19.386Z,15.25
2019-02-05T02:17:48.420Z,12.55
2019-02-05T02:20:18.206Z,18.62
2019-02-05T02:22:47.298Z,15.65
2019-02-05T02:25:17.393Z,15.45
2019-02-05T02:27:46.894Z,10.18
2019-02-05T02:30:24.597Z,12.15
2019-02-05T02:32:53.372Z,9.33
2019-02-05T02:35:22.330Z,13.03
2019-02-05T02:37:51.548Z,17.65
2019-02-05T02:40:20.378Z,14.10
2019-02-05T02:42:49.775Z,13.43
2019-02-05T02:45:18.766Z,15.72
2019-02-05T02:47:47.691Z,11.57
2019-02-05T02:50:17.337Z,17.50
2019-02-05T02:52:46.888Z,10.88
2019-02-05T02:55:16.562Z,10.85
2019-02-05T02:57:45.867Z,16.10
2019-02-05T03:00:17.287Z,16.57
2019-02-05T03:02:46.752Z,15.23
2019-02-05T03:05:17.539Z,17.40
2019-02-05T03:07:46.969Z,14.80
2019-02-05T03:10:24.168Z,14.63
2019-02-05T03:12:53.364Z,14.95
2019-02-05T03:15:22.284Z,14.47
2019-02-05T03:17:51.610Z,16.85
2019-02-05T03:20:20.839Z,14.03
2019-02-05T03:22:50.263Z,18.10
2019-02-05T03:25:20.670Z,14.70
2019-02-05T03:27:53.561Z,18.20
2019-02-05T03:30:21.747Z,13.60
2019-02-05T03:32:50.884Z,11.53
2019-02-05T03:35:20.210Z,14.85
2019-02-05T03:37:50.079Z,14.00
2019-02-05T03:41:07.088Z,17.32
2019-02-05T03:43:40.309Z,16.30
2019-02-05T03:46:11.308Z,15.32
2019-02-05T03:48:41.492Z,18.80
2019-02-05T03:51:36.818Z,19.20
2019-02-05T03:54:52.786Z,15.28
2019-02-05T03:58:08.575Z,11.60
2019-02-05T04:00:55.847Z,17.60
2019-02-05T04:04:05.050Z,15.20
2019-02-05T04:07:13.634Z,20.60
2019-02-05T04:10:32.464Z,19.23
2019-02-05T04:13:13.438Z,15.58
2019-02-05T04:16:18.001Z,18.12
2019-02-05T04:19:30.956Z,10.03
2019-02-05T04:22:41.361Z,17.50
2019-02-05T04:25:49.537Z,14.00
2019-02-05T04:28:27.905Z,19.95
2019-02-05T04:31:09.094Z,18.87
2019-02-05T04:34:05.007Z,21.50
2019-02-05T04:37:10.828Z,14.15
2019-02-05T04:40:05.996Z,15.65
2019-02-05T04:42:42.254Z,17.85
2019-02-05T04:45:42.376Z,14.40
2019-02-05T04:48:58.658Z,20.50
2019-02-05T04:52:29.601Z,15.93
2019-02-05T04:55:28.704Z,17.70
2019-02-05T04:58:19.899Z,13.18
2019-02-05T05:01:34.645Z,16.17
2019-02-05T05:04:41.960Z,16.25
2019-02-05T05:07:37.759Z,18.30
2019-02-05T05:10:07.904Z,18.52
2019-02-05T05:12:36.737Z,17.48
2019-02-05T05:15:08.080Z,12.75
2019-02-05T05:17:36.871Z,17.42
2019-02-05T05:20:08.178Z,15.13
2019-02-05T05:22:37.598Z,18.60
2019-02-05T05:25:09.033Z,15.25
2019-02-05T05:27:38.066Z,13.28
2019-02-05T05:30:13.583Z,23.50
2019-02-05T05:32:42.588Z,15.38
2019-02-05T05:35:11.734Z,22.13
2019-02-05T05:37:40.638Z,19.02
2019-02-05T05:40:09.949Z,18.82
2019-02-05T05:42:38.695Z,15.35
2019-02-05T05:45:10.192Z,17.60
2019-02-05T05:47:39.084Z,16.67
2019-02-05T05:50:10.913Z,18.80
2019-02-05T05:52:40.067Z,22.20
2019-02-05T05:55:09.555Z,18.30
2019-02-05T05:57:38.531Z,15.55
2019-02-05T06:00:10.966Z,22.95
2019-02-05T06:02:40.064Z,22.95
2019-02-05T06:05:09.343Z,19.30
2019-02-05T06:07:38.393Z,17.92
2019-02-05T06:10:08.721Z,21.73
2019-02-05T06:12:37.559Z,16.73
2019-02-05T06:15:07.681Z,19.12
2019-02-05T06:17:36.602Z,17.57
2019-02-05T06:20:07.192Z,20.52
2019-02-05T06:22:36.595Z,20.88
2019-02-05T06:25:05.669Z,18.77
2019-02-05T06:27:34.859Z,21.05
2019-02-05T06:30:04.464Z,15.30
2019-02-05T06:32:33.339Z,18.12
2019-02-05T06:35:02.688Z,19.82
2019-02-05T06:37:31.526Z,19.17
2019-02-05T06:40:00.442Z,16.52
2019-02-05T06:42:29.861Z,22.82
2019-02-05T06:44:58.702Z,26.17
2019-02-05T06:47:27.631Z,18.50
2019-02-05T06:49:56.767Z,15.90
2019-02-05T06:52:25.946Z,23.05
2019-02-05T06:54:54.750Z,23.83
2019-02-05T06:57:23.919Z,16.77
2019-02-05T06:59:53.246Z,21.33
2019-02-05T07:02:22.350Z,19.23
2019-02-05T07:04:51.277Z,20.55
2019-02-05T07:07:20.058Z,21.17
2019-02-05T07:09:49.102Z,18.87
2019-02-05T07:12:18.140Z,27.10
2019-02-05T07:14:47.610Z,21.25
2019-02-05T07:17:16.720Z,21.62
2019-02-05T07:19:45.574Z,18.50
2019-02-05T07:22:14.530Z,20.37
2019-02-05T07:24:43.651Z,24.45
2019-02-05T07:27:12.482Z,20.35
2019-02-05T07:29:41.494Z,20.00
2019-02-05T07:32:10.812Z,24.50
2019-02-05T07:34:39.662Z,23.85
2019-02-05T07:37:08.854Z,24.18
2019-02-05T07:39:37.796Z,20.43
2019-02-05T07:42:06.759Z,21.87
2019-02-05T07:44:35.515Z,13.68
2019-02-05T07:47:04.789Z,24.47
2019-02-05T07:49:34.042Z,21.57
2019-02-05T07:52:02.975Z,21.77
2019-02-05T07:54:31.870Z,22.50
2019-02-05T07:57:00.639Z,21.77
2019-02-05T07:59:29.399Z,20.60
2019-02-05T08:01:58.255Z,20.35
2019-02-05T08:04:27.284Z,22.45
2019-02-05T08:06:56.174Z,22.93
2019-02-05T08:09:25.427Z,18.92
2019-02-05T08:11:54.321Z,21.57
2019-02-05T08:14:23.150Z,21.40
2019-02-05T08:16:52.007Z,23.27
2019-02-05T08:19:20.835Z,21.57
2019-02-05T08:21:49.630Z,19.35
2019-02-05T08:24:18.648Z,19.62
2019-02-05T08:26:47.799Z,22.15
2019-02-05T08:29:21.644Z,16.65
2019-02-05T08:31:47.515Z,28.47
2019-02-05T08:34:16.700Z,24.63
2019-02-05T08:36:45.498Z,18.57
2019-02-05T08:39:14.578Z,19.48
2019-02-05T08:41:45.411Z,18.95
2019-02-05T08:44:14.702Z,22.62
2019-02-05T08:46:43.830Z,20.88
2019-02-05T08:49:12.709Z,20.27
2019-02-05T08:51:41.498Z,20.50
2019-02-05T08:54:10.346Z,22.13
2019-02-05T08:56:39.523Z,15.68
2019-02-05T08:59:08.463Z,21.33
2019-02-05T09:01:37.705Z,22.98
2019-02-05T09:04:06.587Z,19.30
2019-02-05T09:06:35.719Z,24.37
2019-02-05T09:09:08.003Z,17.17
2019-02-05T09:11:36.876Z,19.17
2019-02-05T09:14:10.889Z,14.03
2019-02-05T09:16:36.714Z,19.85
2019-02-05T09:19:06.041Z,20.15
2019-02-05T09:21:34.798Z,27.50
2019-02-05T09:24:03.659Z,21.77
2019-02-05T09:26:32.542Z,24.65
2019-02-05T09:29:01.647Z,20.20
2019-02-05T09:31:30.482Z,22.62
2019-02-05T09:33:59.847Z,26.97
2019-02-05T09:36:28.854Z,26.37
2019-02-05T09:38:58.288Z,22.70
2019-02-05T09:41:27.492Z,21.55
2019-02-05T09:43:58.779Z,19.40
2019-02-05T09:46:27.614Z,16.95
2019-02-05T09:48:56.727Z,20.80
2019-02-05T09:51:25.685Z,21.65
2019-02-05T09:53:54.842Z,24.57
2019-02-05T09:56:23.687Z,21.25
2019-02-05T09:58:52.920Z,26.55
2019-02-05T10:01:21.988Z,17.75
2019-02-05T10:03:51.116Z,18.45
2019-02-05T10:06:19.975Z,24.47
2019-02-05T10:08:49.140Z,23.55
2019-02-05T10:11:18.281Z,24.12
2019-02-05T10:13:47.452Z,23.95
2019-02-05T10:16:16.514Z,18.70
2019-02-05T10:18:46.115Z,20.23
2019-02-05T10:21:15.198Z,18.77
2019-02-05T10:23:44.178Z,19.42
2019-02-05T10:26:13.137Z,17.32
2019-02-05T10:28:41.976Z,19.32
2019-02-05T10:31:11.320Z,19.85
2019-02-05T10:33:40.428Z,21.82
2019-02-05T10:36:09.616Z,23.25
2019-02-05T10:38:38.761Z,19.35
2019-02-05T10:41:07.996Z,26.45
2019-02-05T10:43:37.186Z,23.35
2019-02-05T10:46:08.020Z,29.45
2019-02-05T10:48:37.146Z,24.02
2019-02-05T10:51:06.241Z,22.25
2019-02-05T10:53:35.028Z,18.90
2019-02-05T10:56:04.291Z,27.32
2019-02-05T10:58:33.343Z,22.00
2019-02-05T11:01:02.455Z,26.02
2019-02-05T11:03:31.443Z,21.50
2019-02-05T11:06:00.295Z,24.37
2019-02-05T11:08:29.356Z,18.75
2019-02-05T11:10:58.222Z,18.98
2019-02-05T11:13:27.004Z,18.35
2019-02-05T11:15:56.227Z,21.45
2019-02-05T11:18:25.558Z,18.55
2019-02-05T11:20:54.648Z,25.92
2019-02-05T11:23:23.898Z,29.90
2019-02-05T11:25:52.822Z,22.98
2019-02-05T11:28:21.612Z,21.27
2019-02-05T11:30:50.992Z,23.40
2019-02-05T11:33:20.270Z,18.87
2019-02-05T11:35:49.126Z,21.70
2019-02-05T11:38:17.987Z,20.08
2019-02-05T11:40:47.023Z,20.70
2019-02-05T11:43:16.098Z,17.35
2019-02-05T11:45:45.281Z,20.45
2019-02-05T11:48:16.680Z,18.25
2019-02-05T11:50:45.775Z,18.23
2019-02-05T11:53:14.947Z,16.90
2019-02-05T11:55:44.116Z,17.45
2019-02-05T11:58:13.639Z,19.23
2019-02-05T12:00:56.360Z,13.98
2019-02-05T12:03:25.207Z,11.35
2019-02-05T12:05:54.144Z,16.30
2019-02-05T12:08:22.912Z,20.30
2019-02-05T12:10:51.839Z,19.50
2019-02-05T12:13:20.618Z,15.80
2019-02-05T12:15:49.579Z,13.05
2019-02-05T12:18:18.634Z,17.35
2019-02-05T12:20:47.629Z,17.40
2019-02-05T12:23:16.555Z,13.15
2019-02-05T12:25:45.459Z,18.48
2019-02-05T12:28:14.424Z,17.87
2019-02-05T12:30:45.410Z,13.85
2019-02-05T12:33:14.626Z,17.87
2019-02-05T12:35:43.924Z,18.23
2019-02-05T12:38:12.974Z,20.95
2019-02-05T12:40:41.922Z,18.23
2019-02-05T12:43:10.776Z,22.25
2019-02-05T12:45:39.856Z,15.90
2019-02-05T12:48:08.781Z,17.45
2019-02-05T12:50:38.340Z,22.52
2019-02-05T12:53:08.026Z,17.92
2019-02-05T12:55:37.172Z,16.48
2019-02-05T12:58:06.386Z,17.90
2019-02-05T13:00:40.431Z,13.20
2019-02-05T13:03:10.082Z,20.95
2019-02-05T13:05:39.583Z,19.37
2019-02-05T13:08:09.098Z,15.48
2019-02-05T13:10:40.381Z,15.32
2019-02-05T13:13:09.708Z,9.98
2019-02-05T13:15:38.848Z,10.08
2019-02-05T13:18:08.406Z,18.55
2019-02-05T13:20:37.991Z,20.68
2019-02-05T13:23:08.060Z,18.87
2019-02-05T13:25:37.462Z,14.87
2019-02-05T13:28:08.234Z,16.80
2019-02-05T13:30:37.674Z,15.88
2019-02-05T13:33:07.283Z,15.68
2019-02-05T13:35:37.103Z,20.02
2019-02-05T13:38:06.307Z,16.30
2019-02-05T13:40:35.502Z,18.40
2019-02-05T13:43:05.163Z,14.58
2019-02-05T13:45:34.895Z,13.83
2019-02-05T13:48:04.702Z,16.90
2019-02-05T13:50:34.303Z,17.13
2019-02-05T13:53:03.230Z,13.60
2019-02-05T13:55:34.279Z,11.70
2019-02-05T13:58:03.189Z,15.83
2019-02-05T14:00:34.307Z,15.83
2019-02-05T14:03:03.324Z,18.60
2019-02-05T14:05:32.299Z,15.45
2019-02-05T14:08:01.536Z,20.37
2019-02-05T14:10:31.643Z,12.90
2019-02-05T14:13:00.998Z,12.90
2019-02-05T14:15:35.231Z,12.55
2019-02-05T14:18:04.936Z,13.32
2019-02-05T14:20:33.867Z,16.05
2019-02-05T14:23:02.723Z,14.73
2019-02-05T14:25:31.658Z,15.50
2019-02-05T14:28:00.549Z,16.50
2019-02-05T14:30:41.062Z,18.90
2019-02-05T14:33:10.002Z,15.95
2019-02-05T14:35:38.842Z,14.63
2019-02-05T14:38:08.711Z,18.40
2019-02-05T14:40:37.934Z,15.85
2019-02-05T14:43:09.525Z,17.77
2019-02-05T14:45:39.174Z,16.62
2019-02-05T14:48:08.872Z,10.10
2019-02-05T14:50:41.793Z,19.05
2019-02-05T14:53:11.813Z,16.35
2019-02-05T14:55:40.804Z,12.97
2019-02-05T14:58:11.238Z,15.40
2019-02-05T15:00:40.695Z,19.00
2019-02-05T15:03:11.011Z,17.07
2019-02-05T15:05:40.554Z,19.67
2019-02-05T15:08:10.175Z,16.80
2019-02-05T15:10:39.225Z,18.20
2019-02-05T15:13:08.440Z,13.03
2019-02-05T15:15:37.897Z,14.40
2019-02-05T15:18:08.959Z,13.08
2019-02-05T15:20:40.233Z,13.00
2019-02-05T15:23:09.590Z,22.58
2019-02-05T15:25:38.938Z,20.82
2019-02-05T15:28:08.747Z,18.73
2019-02-05T15:30:39.668Z,13.40
2019-02-05T15:33:40.391Z,14.63
2019-02-05T15:36:17.821Z,15.72
2019-02-05T15:38:46.993Z,14.43
2019-02-05T15:41:16.100Z,15.25
2019-02-05T15:43:45.619Z,12.60
2019-02-05T15:46:14.566Z,14.35
2019-02-05T15:48:43.684Z,12.10
2019-02-05T15:51:12.616Z,19.35
2019-02-05T15:53:41.459Z,12.30
2019-02-05T15:56:10.656Z,14.23
2019-02-05T15:58:39.444Z,11.83
2019-02-05T16:01:08.679Z,17.40
2019-02-05T16:03:37.527Z,15.38
2019-02-05T16:06:06.518Z,14.28
2019-02-05T16:08:35.617Z,15.10
2019-02-05T16:11:05.462Z,12.37
2019-02-05T16:13:34.360Z,22.85
2019-02-05T16:16:03.547Z,16.32
2019-02-05T16:18:32.660Z,17.02
2019-02-05T16:21:01.978Z,14.25
2019-02-05T16:23:30.920Z,15.53
2019-02-05T16:25:59.999Z,15.15
2019-02-05T16:28:29.172Z,16.23
2019-02-05T16:30:58.363Z,16.82
2019-02-05T16:33:27.492Z,19.95
2019-02-05T16:35:56.949Z,21.02
2019-02-05T16:38:25.799Z,15.60
2019-02-05T16:40:54.610Z,17.35
2019-02-05T16:43:23.744Z,13.88
2019-02-05T16:45:52.522Z,20.32
2019-02-05T16:48:22.578Z,14.53
2019-02-05T16:50:51.841Z,13.62
2019-02-05T16:53:20.740Z,21.07
2019-02-05T16:55:49.520Z,15.53
2019-02-05T16:58:18.403Z,18.23
2019-02-05T17:00:47.339Z,14.33
2019-02-05T17:03:16.627Z,19.02
2019-02-05T17:05:45.597Z,18.52
2019-02-05T17:08:14.967Z,16.62
2019-02-05T17:10:43.836Z,16.90
2019-02-05T17:13:12.935Z,14.87
2019-02-05T17:15:42.016Z,17.67
2019-02-05T17:18:11.120Z,22.98
2019-02-05T17:20:39.975Z,17.65
2019-02-05T17:23:09.083Z,18.75
2019-02-05T17:25:38.279Z,15.80
2019-02-05T17:28:07.564Z,17.75
2019-02-05T17:30:37.655Z,15.32
2019-02-05T17:33:07.087Z,15.25
2019-02-05T17:35:36.207Z,22.45
2019-02-05T17:38:06.955Z,20.10
2019-02-05T17:40:35.939Z,20.82
2019-02-05T17:43:05.861Z,20.10
2019-02-05T17:45:36.827Z,15.90
2019-02-05T17:48:12.197Z,17.25
2019-02-05T17:50:41.609Z,22.32
2019-02-05T17:53:10.518Z,14.87
2019-02-05T17:55:39.451Z,17.73
2019-02-05T17:58:08.598Z,15.48
2019-02-05T18:00:48.547Z,18.42
2019-02-05T18:03:17.456Z,17.57
2019-02-05T18:05:46.372Z,14.50
2019-02-05T18:08:15.227Z,15.55
2019-02-05T18:10:44.228Z,18.77
2019-02-05T18:13:13.080Z,16.07
2019-02-05T18:15:42.005Z,16.90
2019-02-05T18:18:11.164Z,20.20
2019-02-05T18:20:40.098Z,21.80
2019-02-05T18:23:09.204Z,17.67
2019-02-05T18:25:38.455Z,22.50
2019-02-05T18:28:08.127Z,22.93
2019-02-05T18:30:37.792Z,17.97
2019-02-05T18:33:07.185Z,17.20
2019-02-05T18:35:36.410Z,23.10
2019-02-05T18:38:06.066Z,18.45
2019-02-05T18:40:35.332Z,18.87
2019-02-05T18:43:04.286Z,17.27
2019-02-05T18:45:33.202Z,17.42
2019-02-05T18:48:02.059Z,20.30
2019-02-05T18:50:31.170Z,23.83
2019-02-05T18:53:00.043Z,18.65
2019-02-05T18:55:29.663Z,18.55
2019-02-05T18:58:08.789Z,21.80
2019-02-05T19:00:31.440Z,18.20
2019-02-05T19:03:00.372Z,21.85
2019-02-05T19:05:29.983Z,25.48
2019-02-05T19:07:58.875Z,20.32
2019-02-05T19:10:28.043Z,19.67
2019-02-05T19:12:57.192Z,44.27
2019-02-05T19:15:31.001Z,28.12
2019-02-05T19:18:00.083Z,29.35
2019-02-05T19:20:30.473Z,19.80
2019-02-05T19:22:59.718Z,20.45
2019-02-05T19:25:46.113Z,20.17
2019-02-05T19:28:22.023Z,18.10
2019-02-05T19:30:52.060Z,18.60
2019-02-05T19:33:27.360Z,20.37
2019-02-05T19:35:52.381Z,25.30
2019-02-05T19:38:21.310Z,21.90
2019-02-05T19:40:57.251Z,23.20
2019-02-05T19:43:23.197Z,20.90
2019-02-05T19:45:58.962Z,25.95
2019-02-05T19:48:32.616Z,22.32
2019-02-05T19:51:02.099Z,21.48
2019-02-05T19:53:31.254Z,27.98
2019-02-05T19:56:00.738Z,25.90
2019-02-05T19:58:30.431Z,25.23
2019-02-05T20:00:59.250Z,23.60
2019-02-05T20:03:38.376Z,24.70
2019-02-05T20:05:58.758Z,26.77
2019-02-05T20:08:28.176Z,20.65
2019-02-05T20:10:56.955Z,29.25
2019-02-05T20:13:26.048Z,30.90
2019-02-05T20:15:55.665Z,22.80
2019-02-05T20:18:24.632Z,25.23
2019-02-05T20:20:53.639Z,26.20
2019-02-05T20:23:22.799Z,27.82
2019-02-05T20:25:51.731Z,21.65
2019-02-05T20:28:20.597Z,24.05
2019-02-05T20:30:49.611Z,20.90
2019-02-05T20:33:18.580Z,26.35
2019-02-05T20:35:47.965Z,24.87
2019-02-05T20:38:17.089Z,22.22
2019-02-05T20:40:46.023Z,25.00
2019-02-05T20:43:14.851Z,21.93
2019-02-05T20:45:44.071Z,24.02
2019-02-05T20:48:13.582Z,21.35
2019-02-05T20:50:42.468Z,22.75
2019-02-05T20:53:13.950Z,20.80
2019-02-05T20:55:42.231Z,22.55
2019-02-05T20:58:11.068Z,22.73
2019-02-05T21:00:39.924Z,26.70
2019-02-05T21:03:08.925Z,22.80
2019-02-05T21:05:38.226Z,23.12
2019-02-05T21:08:07.162Z,18.95
2019-02-05T21:10:36.012Z,24.10
2019-02-05T21:13:04.975Z,21.23
2019-02-05T21:15:34.072Z,23.75
2019-02-05T21:18:02.982Z,23.62
2019-02-05T21:20:33.928Z,20.97
2019-02-05T21:23:03.150Z,26.20
2019-02-05T21:25:32.010Z,22.20
2019-02-05T21:28:00.915Z,21.52
2019-02-05T21:30:29.811Z,22.02
2019-02-05T21:32:58.650Z,23.50
2019-02-05T21:35:27.590Z,22.05
2019-02-05T21:37:57.095Z,19.45
2019-02-05T21:40:26.312Z,21.30
2019-02-05T21:42:55.180Z,23.52
2019-02-05T21:45:24.542Z,19.15
2019-02-05T21:47:53.678Z,21.10
2019-02-05T21:50:23.328Z,24.30
2019-02-05T21:52:52.343Z,21.33
2019-02-05T21:55:21.682Z,25.23
2019-02-05T21:57:50.621Z,22.60
2019-02-05T22:00:24.326Z,22.93
2019-02-05T22:02:53.288Z,22.42
2019-02-05T22:05:22.639Z,27.60
2019-02-05T22:07:51.546Z,22.20
2019-02-05T22:10:20.806Z,19.70
2019-02-05T22:12:49.859Z,22.10
2019-02-05T22:15:19.455Z,24.07
2019-02-05T22:17:48.325Z,21.02
2019-02-05T22:20:18.991Z,24.92
2019-02-05T22:22:47.941Z,26.02
2019-02-05T22:25:25.339Z,24.65
2019-02-05T22:27:54.915Z,21.42
2019-02-05T22:30:28.554Z,18.75
2019-02-05T22:32:57.487Z,23.25
2019-02-05T22:35:26.899Z,25.97
2019-02-05T22:37:56.761Z,32.78
2019-02-05T22:40:26.647Z,27.05
2019-02-05T22:42:55.827Z,20.97
2019-02-05T22:45:26.445Z,26.82
2019-02-05T22:47:55.356Z,25.27
2019-02-05T22:50:25.859Z,21.00
2019-02-05T22:52:54.892Z,25.80
2019-02-05T22:55:23.819Z,27.62
2019-02-05T22:57:52.998Z,26.35
2019-02-05T23:00:53.579Z,26.10
2019-02-05T23:03:38.356Z,24.05
2019-02-05T23:06:44.193Z,28.25
2019-02-05T23:09:19.243Z,23.25
2019-02-05T23:12:20.847Z,24.65
2019-02-05T23:14:53.873Z,22.90
2019-02-05T23:17:22.845Z,23.02
2019-02-05T23:19:51.791Z,24.70
2019-02-05T23:22:21.070Z,26.95
2019-02-05T23:24:49.934Z,22.40
2019-02-05T23:27:18.727Z,31.07
2019-02-05T23:29:47.519Z,26.70
2019-02-05T23:32:16.280Z,22.75
2019-02-05T23:34:45.363Z,24.52
2019-02-05T23:37:14.222Z,20.95
2019-02-05T23:39:43.301Z,24.92
2019-02-05T23:42:12.603Z,21.15
2019-02-05T23:44:42.706Z,29.55
2019-02-05T23:47:11.733Z,27.22
2019-02-05T23:49:40.607Z,27.80
2019-02-05T23:52:09.539Z,26.07
2019-02-05T23:54:38.602Z,24.25
2019-02-05T23:57:09.867Z,28.57
2019-02-05T23:59:38.386Z,129.65
